METAR Data
IDs: Format: Raw Decoded Include TAF

Data at: 0906 UTC 13 Aug 2022

METAR for:VTUU (Ubon Ratchathan Intl, 34, TH)
Text:VTUU 130900Z 22004KT 190V270 9999 FEW040 33/24 Q1006 NOSIG
Temperature: 33.0°C ( 91°F)
Dewpoint: 24.0°C ( 75°F) [RH = 59%]
Pressure (altimeter):29.70 inches Hg (1006.0 mb)
Winds:from the SW (220 degrees) at 5 MPH (4 knots; 2.1 m/s)
Visibility:6 or more sm (10+ km)
Ceiling:at least 12,000 feet AGL
Clouds: few clouds at 4000 feet AGL